createdAt,value
2018-08-12T00:01:18.019Z,12.30
2018-08-12T00:03:46.583Z,12.30
2018-08-12T00:06:15.103Z,12.30
2018-08-12T00:08:44.304Z,12.20
2018-08-12T00:11:12.941Z,12.20
2018-08-12T00:13:41.513Z,12.10
2018-08-12T00:16:10.131Z,12.10
2018-08-12T00:18:38.716Z,12.10
2018-08-12T00:21:07.543Z,12.10
2018-08-12T00:23:36.073Z,12.10
2018-08-12T00:26:04.710Z,12.10
2018-08-12T00:28:33.308Z,12.10
2018-08-12T00:31:01.951Z,12.10
2018-08-12T00:33:30.574Z,12.10
2018-08-12T00:35:59.118Z,12.10
2018-08-12T00:38:27.638Z,12.20
2018-08-12T00:40:56.230Z,12.20
2018-08-12T00:43:24.814Z,12.20
2018-08-12T00:45:53.525Z,12.30
2018-08-12T00:48:22.076Z,12.30
2018-08-12T00:50:50.633Z,12.40
2018-08-12T00:53:19.163Z,12.40
2018-08-12T00:55:47.726Z,12.40
2018-08-12T00:58:16.313Z,12.40
2018-08-12T01:00:44.911Z,12.40
2018-08-12T01:03:13.480Z,12.40
2018-08-12T01:05:42.066Z,12.40
2018-08-12T01:08:10.696Z,12.40
2018-08-12T01:10:39.307Z,12.50
2018-08-12T01:13:07.884Z,12.50
2018-08-12T01:15:36.468Z,12.50
2018-08-12T01:18:05.932Z,12.50
2018-08-12T01:20:34.526Z,12.50
2018-08-12T01:23:03.039Z,12.60
2018-08-12T01:25:31.711Z,12.60
2018-08-12T01:28:00.274Z,12.60
2018-08-12T01:30:28.800Z,12.50
2018-08-12T01:32:57.395Z,12.50
2018-08-12T01:35:25.934Z,12.50
2018-08-12T01:37:54.521Z,12.40
2018-08-12T01:40:23.195Z,12.30
2018-08-12T01:42:51.735Z,12.20
2018-08-12T01:45:21.120Z,12.10
2018-08-12T01:47:49.795Z,12.10
2018-08-12T01:50:19.558Z,12.10
2018-08-12T01:52:48.141Z,12.10
2018-08-12T01:55:17.122Z,12.10
2018-08-12T01:57:45.682Z,12.10
2018-08-12T02:00:15.594Z,12.10
2018-08-12T02:02:44.280Z,12.10
2018-08-12T02:05:12.829Z,12.00
2018-08-12T02:07:41.871Z,11.90
2018-08-12T02:10:11.179Z,11.90
2018-08-12T02:12:40.357Z,11.80
2018-08-12T02:15:10.479Z,11.80
2018-08-12T02:17:39.507Z,11.80
2018-08-12T02:20:08.981Z,11.70
2018-08-12T02:22:38.122Z,11.60
2018-08-12T02:25:07.316Z,11.60
2018-08-12T02:27:35.892Z,11.60
2018-08-12T02:30:05.059Z,11.60
2018-08-12T02:32:33.569Z,11.50
2018-08-12T02:35:02.166Z,11.50
2018-08-12T02:37:30.699Z,11.50
2018-08-12T02:39:59.396Z,11.50
2018-08-12T02:42:27.944Z,11.40
2018-08-12T02:44:56.564Z,11.40
2018-08-12T02:47:25.132Z,11.30
2018-08-12T02:49:53.698Z,11.30
2018-08-12T02:52:22.250Z,11.30
2018-08-12T02:54:50.856Z,11.30
2018-08-12T02:57:19.489Z,11.30
2018-08-12T02:59:48.024Z,11.30
2018-08-12T03:02:16.596Z,11.30
2018-08-12T03:04:45.121Z,11.30
2018-08-12T03:07:13.623Z,11.30
2018-08-12T03:09:42.152Z,11.40
2018-08-12T03:12:10.725Z,11.50
2018-08-12T03:14:39.253Z,11.50
2018-08-12T03:17:07.829Z,11.50
2018-08-12T03:19:36.444Z,11.60
2018-08-12T03:22:04.957Z,11.60
2018-08-12T03:24:33.522Z,11.60
2018-08-12T03:27:02.046Z,11.60
2018-08-12T03:29:30.543Z,11.60
2018-08-12T03:31:59.073Z,11.60
2018-08-12T03:34:27.595Z,11.60
2018-08-12T03:36:56.134Z,11.60
2018-08-12T03:39:24.669Z,11.60
2018-08-12T03:41:53.189Z,11.60
2018-08-12T03:44:21.713Z,11.60
2018-08-12T03:46:50.276Z,11.50
2018-08-12T03:49:18.811Z,11.50
2018-08-12T03:51:47.340Z,11.50
2018-08-12T03:54:15.947Z,11.40
2018-08-12T03:56:44.475Z,11.50
2018-08-12T03:59:13.036Z,11.40
2018-08-12T04:01:41.624Z,11.40
2018-08-12T04:04:10.166Z,11.30
2018-08-12T04:06:38.709Z,11.30
2018-08-12T04:09:08.983Z,11.20
2018-08-12T04:11:37.496Z,11.20
2018-08-12T04:14:06.545Z,11.10
2018-08-12T04:16:35.228Z,11.10
2018-08-12T04:19:03.926Z,11.10
2018-08-12T04:21:32.434Z,11.10
2018-08-12T04:24:01.072Z,11.00
2018-08-12T04:26:29.594Z,11.00
2018-08-12T04:28:58.115Z,11.00
2018-08-12T04:31:26.642Z,11.00
2018-08-12T04:33:55.154Z,11.00
2018-08-12T04:36:23.811Z,11.00
2018-08-12T04:38:52.364Z,11.10
2018-08-12T04:41:20.868Z,11.10
2018-08-12T04:43:49.382Z,11.10
2018-08-12T04:46:17.920Z,11.10
2018-08-12T04:48:46.456Z,11.10
2018-08-12T04:51:14.967Z,11.10
2018-08-12T04:53:43.480Z,11.10
2018-08-12T04:56:11.981Z,11.20
2018-08-12T04:58:40.514Z,11.20
2018-08-12T05:01:09.099Z,11.30
2018-08-12T05:03:37.634Z,11.40
2018-08-12T05:06:06.173Z,11.50
2018-08-12T05:08:34.729Z,11.50
2018-08-12T05:11:03.251Z,11.60
2018-08-12T05:13:31.815Z,11.70
2018-08-12T05:16:00.387Z,11.80
2018-08-12T05:18:28.910Z,11.90
2018-08-12T05:20:57.485Z,12.20
2018-08-12T05:23:26.038Z,12.50
2018-08-12T05:25:54.585Z,12.90
2018-08-12T05:28:23.078Z,13.20
2018-08-12T05:30:51.620Z,13.60
2018-08-12T05:33:20.298Z,14.00
2018-08-12T05:35:48.797Z,14.60
2018-08-12T05:38:17.366Z,15.00
2018-08-12T05:40:45.889Z,15.60
2018-08-12T05:43:14.477Z,16.10
2018-08-12T05:45:43.060Z,16.40
2018-08-12T05:48:11.599Z,16.50
2018-08-12T05:50:40.120Z,16.60
2018-08-12T05:53:08.698Z,16.70
2018-08-12T05:55:37.193Z,17.00
2018-08-12T05:58:06.021Z,17.40
2018-08-12T06:00:34.583Z,17.70
2018-08-12T06:03:03.196Z,17.70
2018-08-12T06:05:31.735Z,17.50
2018-08-12T06:08:00.263Z,17.10
2018-08-12T06:10:29.105Z,17.10
2018-08-12T06:12:57.627Z,17.20
2018-08-12T06:15:26.211Z,17.50
2018-08-12T06:17:54.748Z,17.60
2018-08-12T06:20:23.277Z,17.80
2018-08-12T06:22:51.817Z,18.00
2018-08-12T06:25:25.910Z,18.00
2018-08-12T06:27:54.429Z,17.90
2018-08-12T06:30:22.937Z,18.00
2018-08-12T06:32:51.433Z,18.10
2018-08-12T06:35:19.973Z,18.30
2018-08-12T06:37:48.551Z,18.60
2018-08-12T06:40:17.084Z,18.70
2018-08-12T06:42:46.242Z,18.90
2018-08-12T06:45:17.359Z,19.20
2018-08-12T06:47:47.061Z,19.70
2018-08-12T06:50:15.638Z,20.40
2018-08-12T06:52:44.200Z,21.30
2018-08-12T06:55:13.548Z,22.00
2018-08-12T06:57:43.171Z,22.60
2018-08-12T07:00:13.759Z,22.90
2018-08-12T07:02:42.370Z,23.40
2018-08-12T07:05:11.717Z,23.70
2018-08-12T07:07:40.335Z,23.80
2018-08-12T07:10:11.498Z,24.10
2018-08-12T07:12:40.494Z,24.50
2018-08-12T07:15:12.441Z,25.00
2018-08-12T07:17:42.145Z,24.70
2018-08-12T07:20:11.952Z,24.30
2018-08-12T07:22:41.074Z,24.40
2018-08-12T07:25:11.406Z,24.40
2018-08-12T07:27:40.909Z,24.00
2018-08-12T07:30:11.752Z,24.30
2018-08-12T07:32:40.585Z,24.30
2018-08-12T07:35:10.265Z,24.30
2018-08-12T07:37:39.644Z,24.40
2018-08-12T07:40:11.168Z,24.20
2018-08-12T07:42:39.824Z,24.20
2018-08-12T07:45:10.625Z,24.70
2018-08-12T07:47:39.177Z,25.00
2018-08-12T07:50:08.591Z,25.60
2018-08-12T07:52:37.160Z,26.20
2018-08-12T07:55:06.881Z,26.30
2018-08-12T07:57:35.441Z,26.40
2018-08-12T08:00:05.262Z,26.20
2018-08-12T08:02:33.879Z,25.50
2018-08-12T08:05:02.480Z,25.70
2018-08-12T08:07:31.002Z,26.60
2018-08-12T08:09:59.538Z,27.00
2018-08-12T08:12:28.199Z,27.10
2018-08-12T08:14:56.795Z,26.70
2018-08-12T08:17:26.407Z,26.50
2018-08-12T08:19:54.997Z,26.80
2018-08-12T08:22:24.193Z,27.00
2018-08-12T08:24:52.728Z,26.90
2018-08-12T08:27:21.289Z,26.90
2018-08-12T08:29:49.886Z,27.20
2018-08-12T08:32:18.576Z,27.30
2018-08-12T08:34:47.056Z,27.50
2018-08-12T08:37:15.608Z,27.80
2018-08-12T08:39:44.374Z,28.30
2018-08-12T08:42:12.967Z,28.80
2018-08-12T08:44:41.543Z,28.70
2018-08-12T08:47:10.099Z,28.60
2018-08-12T08:49:38.740Z,27.80
2018-08-12T08:52:07.427Z,28.00
2018-08-12T08:54:35.990Z,28.50
2018-08-12T08:57:04.599Z,29.10
2018-08-12T08:59:33.506Z,28.70
2018-08-12T09:02:02.156Z,28.70
2018-08-12T09:04:30.738Z,28.10
2018-08-12T09:06:59.424Z,27.80
2018-08-12T09:09:28.074Z,27.60
2018-08-12T09:11:56.687Z,27.60
2018-08-12T09:14:25.241Z,27.90
2018-08-12T09:16:53.776Z,28.10
2018-08-12T09:19:22.341Z,28.50
2018-08-12T09:21:50.964Z,29.10
2018-08-12T09:24:19.563Z,29.70
2018-08-12T09:26:48.084Z,30.20
2018-08-12T09:29:16.639Z,30.10
2018-08-12T09:31:45.165Z,29.50
2018-08-12T09:34:13.710Z,29.50
2018-08-12T09:36:42.286Z,29.60
2018-08-12T09:39:12.253Z,29.00
2018-08-12T09:41:40.744Z,29.20
2018-08-12T09:44:09.375Z,29.50
2018-08-12T09:46:37.886Z,29.90
2018-08-12T09:49:06.484Z,30.20
2018-08-12T09:51:35.214Z,30.20
2018-08-12T09:54:03.661Z,30.10
2018-08-12T09:56:32.195Z,30.40
2018-08-12T09:59:00.787Z,30.60
2018-08-12T10:01:29.285Z,30.60
2018-08-12T10:03:57.794Z,31.00
2018-08-12T10:06:26.582Z,30.90
2018-08-12T10:08:55.221Z,31.60
2018-08-12T10:11:23.747Z,31.50
2018-08-12T10:13:52.323Z,31.40
2018-08-12T10:16:20.875Z,32.20
2018-08-12T10:18:49.389Z,31.80
2018-08-12T10:21:18.155Z,33.10
2018-08-12T10:23:47.920Z,33.20
2018-08-12T10:26:16.468Z,33.60
2018-08-12T10:28:45.053Z,33.00
2018-08-12T10:31:13.607Z,32.50
2018-08-12T10:33:42.135Z,32.40
2018-08-12T10:36:10.723Z,32.50
2018-08-12T10:38:39.229Z,32.70
2018-08-12T10:41:07.737Z,33.10
2018-08-12T10:43:36.298Z,32.90
2018-08-12T10:46:04.899Z,31.90
2018-08-12T10:48:33.462Z,31.80
2018-08-12T10:51:01.990Z,31.90
2018-08-12T10:53:30.566Z,32.50
2018-08-12T10:55:59.187Z,32.90
2018-08-12T10:58:27.814Z,33.50
2018-08-12T11:00:56.358Z,34.30
2018-08-12T11:03:24.972Z,34.90
2018-08-12T11:05:53.553Z,34.10
2018-08-12T11:08:22.140Z,33.50
2018-08-12T11:10:50.731Z,33.20
2018-08-12T11:13:19.266Z,33.60
2018-08-12T11:15:47.796Z,33.60
2018-08-12T11:18:16.320Z,33.70
2018-08-12T11:20:44.855Z,33.10
2018-08-12T11:23:13.386Z,32.80
2018-08-12T11:25:41.964Z,32.70
2018-08-12T11:28:10.580Z,33.60
2018-08-12T11:30:39.135Z,34.20
2018-08-12T11:33:07.658Z,34.40
2018-08-12T11:35:36.254Z,35.00
2018-08-12T11:38:04.866Z,35.50
2018-08-12T11:40:33.483Z,35.40
2018-08-12T11:43:02.016Z,35.30
2018-08-12T11:45:30.550Z,35.10
2018-08-12T11:47:59.072Z,34.90
2018-08-12T11:50:27.669Z,34.00
2018-08-12T11:52:56.240Z,34.30
2018-08-12T11:55:24.788Z,34.10
2018-08-12T11:57:53.304Z,34.00
2018-08-12T12:00:22.474Z,35.10
2018-08-12T12:02:52.077Z,36.10
2018-08-12T12:05:20.696Z,37.10
2018-08-12T12:07:49.341Z,37.70
2018-08-12T12:10:19.999Z,36.70
2018-08-12T12:12:49.505Z,36.40
2018-08-12T12:15:18.385Z,37.30
2018-08-12T12:17:47.586Z,35.80
2018-08-12T12:20:17.101Z,34.90
2018-08-12T12:22:46.395Z,34.80
2018-08-12T12:25:16.420Z,35.50
2018-08-12T12:27:44.967Z,36.90
2018-08-12T12:30:16.175Z,37.40
2018-08-12T12:32:45.570Z,36.90
2018-08-12T12:35:14.178Z,36.20
2018-08-12T12:37:43.127Z,35.80
2018-08-12T12:40:13.760Z,35.70
2018-08-12T12:42:42.678Z,35.50
2018-08-12T12:45:12.462Z,35.80
2018-08-12T12:47:41.442Z,36.20
2018-08-12T12:50:16.591Z,36.30
2018-08-12T12:52:45.589Z,36.80
2018-08-12T12:55:14.127Z,36.70
2018-08-12T12:57:42.675Z,36.20
2018-08-12T13:00:14.206Z,36.50
2018-08-12T13:02:42.912Z,37.70
2018-08-12T13:05:13.624Z,38.20
2018-08-12T13:07:43.091Z,37.70
2018-08-12T13:10:12.265Z,36.80
2018-08-12T13:12:41.740Z,36.40
2018-08-12T13:15:11.771Z,37.00
2018-08-12T13:17:40.672Z,37.80
2018-08-12T13:20:13.331Z,38.60
2018-08-12T13:22:42.553Z,38.20
2018-08-12T13:25:13.474Z,37.40
2018-08-12T13:27:42.768Z,36.70
2018-08-12T13:30:12.509Z,37.80
2018-08-12T13:32:42.192Z,37.40
2018-08-12T13:35:10.832Z,37.60
2018-08-12T13:37:39.452Z,37.40
2018-08-12T13:40:11.193Z,37.20
2018-08-12T13:42:40.640Z,37.40
2018-08-12T13:45:10.744Z,37.80
2018-08-12T13:47:40.353Z,37.80
2018-08-12T13:50:19.308Z,37.90
2018-08-12T13:52:48.785Z,38.70
2018-08-12T13:55:17.882Z,40.20
2018-08-12T13:57:47.021Z,39.80
2018-08-12T14:00:17.297Z,39.60
2018-08-12T14:02:45.931Z,38.50
2018-08-12T14:05:16.234Z,38.10
2018-08-12T14:07:45.203Z,38.60
2018-08-12T14:10:13.758Z,38.30
2018-08-12T14:12:42.343Z,37.50
2018-08-12T14:15:14.374Z,36.90
2018-08-12T14:17:44.028Z,36.80
2018-08-12T14:20:14.380Z,38.20
2018-08-12T14:22:43.267Z,38.60
2018-08-12T14:25:12.086Z,39.40
2018-08-12T14:27:42.678Z,39.50
2018-08-12T14:30:14.999Z,38.50
2018-08-12T14:32:44.395Z,38.80
2018-08-12T14:35:12.931Z,38.30
2018-08-12T14:37:41.736Z,37.20
2018-08-12T14:40:11.642Z,37.30
2018-08-12T14:42:40.205Z,37.80
2018-08-12T14:45:10.678Z,37.40
2018-08-12T14:47:40.605Z,37.00
2018-08-12T14:50:11.531Z,37.40
2018-08-12T14:52:40.093Z,38.10
2018-08-12T14:55:09.704Z,38.60
2018-08-12T14:57:38.312Z,39.60
2018-08-12T15:00:08.945Z,38.60
2018-08-12T15:02:37.514Z,38.40
2018-08-12T15:05:06.232Z,37.50
2018-08-12T15:07:34.749Z,37.50
2018-08-12T15:10:03.401Z,37.60
2018-08-12T15:12:31.996Z,37.90
2018-08-12T15:15:00.613Z,37.70
2018-08-12T15:17:29.198Z,36.30
2018-08-12T15:19:57.775Z,35.50
2018-08-12T15:22:26.503Z,35.80
2018-08-12T15:24:55.053Z,35.80
2018-08-12T15:27:23.608Z,35.40
2018-08-12T15:29:52.202Z,34.60
2018-08-12T15:32:20.728Z,34.60
2018-08-12T15:34:49.292Z,34.70
2018-08-12T15:37:18.010Z,34.70
2018-08-12T15:39:46.588Z,35.00
2018-08-12T15:42:15.215Z,34.90
2018-08-12T15:44:43.702Z,34.50
2018-08-12T15:47:12.242Z,33.40
2018-08-12T15:49:40.753Z,32.10
2018-08-12T15:52:09.612Z,31.20
2018-08-12T15:54:38.151Z,30.50
2018-08-12T15:57:06.790Z,30.10
2018-08-12T15:59:35.295Z,29.80
2018-08-12T16:02:03.950Z,29.70
2018-08-12T16:04:32.514Z,29.80
2018-08-12T16:07:01.129Z,30.00
2018-08-12T16:09:29.702Z,29.90
2018-08-12T16:11:58.229Z,29.70
2018-08-12T16:14:26.868Z,29.70
2018-08-12T16:16:55.424Z,29.70
2018-08-12T16:19:23.997Z,29.60
2018-08-12T16:21:52.657Z,29.50
2018-08-12T16:24:21.214Z,29.60
2018-08-12T16:26:49.793Z,29.60
2018-08-12T16:29:18.370Z,29.40
2018-08-12T16:31:46.912Z,29.10
2018-08-12T16:34:15.794Z,29.00
2018-08-12T16:36:44.545Z,28.90
2018-08-12T16:39:13.737Z,28.70
2018-08-12T16:41:42.321Z,28.60
2018-08-12T16:44:10.895Z,28.70
2018-08-12T16:46:39.481Z,28.90
2018-08-12T16:49:08.618Z,29.10
2018-08-12T16:51:37.158Z,29.10
2018-08-12T16:54:05.770Z,29.10
2018-08-12T16:56:34.379Z,29.00
2018-08-12T16:59:02.949Z,29.00
2018-08-12T17:01:31.510Z,29.10
2018-08-12T17:04:00.061Z,29.20
2018-08-12T17:06:28.604Z,29.20
2018-08-12T17:08:57.166Z,29.10
2018-08-12T17:11:25.860Z,29.00
2018-08-12T17:13:54.411Z,28.90
2018-08-12T17:16:23.008Z,28.90
2018-08-12T17:18:51.615Z,29.00
2018-08-12T17:21:20.338Z,29.00
2018-08-12T17:23:48.864Z,28.90
2018-08-12T17:26:17.453Z,28.80
2018-08-12T17:28:49.221Z,28.80
2018-08-12T17:31:17.828Z,28.80
2018-08-12T17:33:46.384Z,28.70
2018-08-12T17:36:14.891Z,28.50
2018-08-12T17:38:43.634Z,28.30
2018-08-12T17:41:12.119Z,28.10
2018-08-12T17:43:40.717Z,27.90
2018-08-12T17:46:09.438Z,27.60
2018-08-12T17:48:37.958Z,27.40
2018-08-12T17:51:06.573Z,27.30
2018-08-12T17:53:35.124Z,27.10
2018-08-12T17:56:03.727Z,26.90
2018-08-12T17:58:32.273Z,26.80
2018-08-12T18:01:00.822Z,26.70
2018-08-12T18:03:29.442Z,26.50
2018-08-12T18:05:58.016Z,26.30
2018-08-12T18:08:26.893Z,26.20
2018-08-12T18:10:55.865Z,26.10
2018-08-12T18:13:24.402Z,26.00
2018-08-12T18:15:52.992Z,25.80
2018-08-12T18:18:21.517Z,25.60
2018-08-12T18:20:50.052Z,25.40
2018-08-12T18:23:18.641Z,25.20
2018-08-12T18:25:47.221Z,24.90
2018-08-12T18:28:15.784Z,24.70
2018-08-12T18:30:44.352Z,24.60
2018-08-12T18:33:12.897Z,24.50
2018-08-12T18:35:42.220Z,24.40
2018-08-12T18:38:10.932Z,24.30
2018-08-12T18:40:39.541Z,24.10
2018-08-12T18:43:08.117Z,24.00
2018-08-12T18:45:36.726Z,23.90
2018-08-12T18:48:05.288Z,24.00
2018-08-12T18:50:33.843Z,23.90
2018-08-12T18:53:02.393Z,23.90
2018-08-12T18:55:30.948Z,23.70
2018-08-12T18:57:59.459Z,23.60
2018-08-12T19:00:27.972Z,23.50
2018-08-12T19:02:56.515Z,23.30
2018-08-12T19:05:25.080Z,23.10
2018-08-12T19:07:53.688Z,22.80
2018-08-12T19:10:22.542Z,22.70
2018-08-12T19:12:51.497Z,22.60
2018-08-12T19:15:20.404Z,22.40
2018-08-12T19:17:49.088Z,22.20
2018-08-12T19:20:17.611Z,21.90
2018-08-12T19:22:46.248Z,21.60
2018-08-12T19:25:14.806Z,21.40
2018-08-12T19:27:43.329Z,21.20
2018-08-12T19:30:13.354Z,21.10
2018-08-12T19:32:41.915Z,20.90
2018-08-12T19:35:11.528Z,20.80
2018-08-12T19:37:40.333Z,20.60
2018-08-12T19:40:09.512Z,20.50
2018-08-12T19:42:38.505Z,20.30
2018-08-12T19:45:08.308Z,20.20
2018-08-12T19:47:36.822Z,20.10
2018-08-12T19:50:06.037Z,19.90
2018-08-12T19:52:34.688Z,19.70
2018-08-12T19:55:03.249Z,19.60
2018-08-12T19:57:31.784Z,19.50
2018-08-12T20:00:00.358Z,19.30
2018-08-12T20:02:28.879Z,19.10
2018-08-12T20:04:57.440Z,19.00
2018-08-12T20:07:25.987Z,18.80
2018-08-12T20:09:54.544Z,18.70
2018-08-12T20:12:23.069Z,18.60
2018-08-12T20:14:51.658Z,18.60
2018-08-12T20:17:20.210Z,18.50
2018-08-12T20:19:48.748Z,18.40
2018-08-12T20:22:17.325Z,18.40
2018-08-12T20:24:45.988Z,18.40
2018-08-12T20:27:14.551Z,18.30
2018-08-12T20:29:43.579Z,18.20
2018-08-12T20:32:12.374Z,18.10
2018-08-12T20:34:40.929Z,18.00
2018-08-12T20:37:09.510Z,18.00
2018-08-12T20:39:38.148Z,18.00
2018-08-12T20:42:06.587Z,18.00
2018-08-12T20:44:35.175Z,18.00
2018-08-12T20:47:03.742Z,17.90
2018-08-12T20:49:32.292Z,17.70
2018-08-12T20:52:01.015Z,17.60
2018-08-12T20:54:29.573Z,17.60
2018-08-12T20:56:58.187Z,17.50
2018-08-12T20:59:26.759Z,17.50
2018-08-12T21:01:55.308Z,17.40
2018-08-12T21:04:23.841Z,17.40
2018-08-12T21:06:52.413Z,17.30
2018-08-12T21:09:20.959Z,17.20
2018-08-12T21:11:49.606Z,17.30
2018-08-12T21:14:18.095Z,17.30
2018-08-12T21:16:46.654Z,17.20
2018-08-12T21:19:15.240Z,17.20
2018-08-12T21:21:43.847Z,17.20
2018-08-12T21:24:12.411Z,17.10
2018-08-12T21:26:40.943Z,17.10
2018-08-12T21:29:09.524Z,17.00
2018-08-12T21:31:38.082Z,17.10
2018-08-12T21:34:06.666Z,17.20
2018-08-12T21:36:35.282Z,17.40
2018-08-12T21:39:06.240Z,17.50
2018-08-12T21:41:34.789Z,17.70
2018-08-12T21:44:04.272Z,17.80
2018-08-12T21:46:32.818Z,17.90
2018-08-12T21:49:01.393Z,17.90
2018-08-12T21:51:29.961Z,18.00
2018-08-12T21:53:58.499Z,18.10
2018-08-12T21:56:27.012Z,18.20
2018-08-12T21:58:55.591Z,18.20
2018-08-12T22:01:24.161Z,18.40
2018-08-12T22:03:52.724Z,18.60
2018-08-12T22:06:21.298Z,18.70
2018-08-12T22:08:49.840Z,18.80
2018-08-12T22:11:18.422Z,18.90
2018-08-12T22:13:47.204Z,18.90
2018-08-12T22:16:15.733Z,19.00
2018-08-12T22:18:44.307Z,19.00
2018-08-12T22:21:12.910Z,19.10
2018-08-12T22:23:41.458Z,19.20
2018-08-12T22:26:09.989Z,19.20
2018-08-12T22:28:38.534Z,19.30
2018-08-12T22:31:07.088Z,19.40
2018-08-12T22:33:35.613Z,19.40
2018-08-12T22:36:04.186Z,19.50
2018-08-12T22:38:32.714Z,19.60
2018-08-12T22:41:01.253Z,19.50
2018-08-12T22:43:29.868Z,19.60
2018-08-12T22:45:58.420Z,19.50
2018-08-12T22:48:26.922Z,19.50
2018-08-12T22:50:55.451Z,19.50
2018-08-12T22:53:23.988Z,19.50
2018-08-12T22:55:52.472Z,19.50
2018-08-12T22:58:21.041Z,19.50
2018-08-12T23:00:49.573Z,19.60
2018-08-12T23:03:18.100Z,19.60
2018-08-12T23:05:46.634Z,19.70
2018-08-12T23:08:15.180Z,19.60
2018-08-12T23:10:43.710Z,19.60
2018-08-12T23:13:12.237Z,19.60
2018-08-12T23:16:18.739Z,19.60
2018-08-12T23:18:47.240Z,19.60
2018-08-12T23:21:16.948Z,19.50
2018-08-12T23:23:46.652Z,19.50
2018-08-12T23:26:16.423Z,19.60
2018-08-12T23:28:46.064Z,19.60
2018-08-12T23:31:14.658Z,19.60
2018-08-12T23:33:43.322Z,19.70
2018-08-12T23:36:12.103Z,19.80
2018-08-12T23:38:40.658Z,19.80
2018-08-12T23:41:10.248Z,19.90
2018-08-12T23:43:38.788Z,19.90
2018-08-12T23:46:07.737Z,19.90
2018-08-12T23:48:36.332Z,19.90
2018-08-12T23:51:04.887Z,19.90
2018-08-12T23:53:33.422Z,19.80
2018-08-12T23:56:02.022Z,19.90
2018-08-12T23:58:30.546Z,19.90
